Time;durP1;ratioP1;P1;durP2;ratioP2;P2;SDS_P1;SDS_P2;PMS_P1;PMS_P2;Temp;Humidity;BMP_temperature;BMP_pressure;BME280_temperature;BME280_humidity;BME280_pressure;Samples;Min_cycle;Max_cycle;Signal;HPM_P1;HPM_P2
2021/03/14 00:00:13;;;;;;;1.63;1.52;;;;;;;6.24;60.94;98901.28;687075;28;23604;-62
2021/03/14 00:00:36;;;;;;;2.40;1.60;;;;;;;6.22;60.79;98921.25;686068;28;46395;-63
2021/03/14 00:00:58;;;;;;;2.53;1.63;;;;;;;6.20;60.81;98907.22;685173;28;67503;-63
2021/03/14 00:01:22;;;;;;;2.42;1.60;;;;;;;6.21;60.83;98916.94;686554;28;37742;-63
2021/03/14 00:01:43;;;;;;;2.67;1.50;;;;;;;6.20;61.18;98916.09;688272;28;11947;-59
2021/03/14 00:02:08;;;;;;;1.60;1.40;;;;;;;6.20;60.89;98917.97;686655;28;21776;-61
2021/03/14 00:02:29;;;;;;;1.70;1.60;;;;;;;6.21;61.03;98915.09;683772;28;113639;-60
2021/03/14 00:02:50;;;;;;;2.08;1.60;;;;;;;6.22;60.75;98935.53;687506;28;8884;-61
2021/03/14 00:03:12;;;;;;;2.50;1.80;;;;;;;6.27;60.35;98938.44;687019;28;23618;-61
2021/03/14 00:03:36;;;;;;;1.63;1.40;;;;;;;6.28;60.06;98915.13;687629;28;913;-63
2021/03/14 00:03:57;;;;;;;1.70;1.50;;;;;;;6.25;60.33;98924.41;684330;28;93350;-59
2021/03/14 00:04:18;;;;;;;1.67;1.58;;;;;;;6.28;60.12;98907.09;687369;28;17478;-59
2021/03/14 00:04:40;;;;;;;1.90;1.58;;;;;;;6.25;60.49;98924.41;686563;28;24355;-59
2021/03/14 00:05:01;;;;;;;2.05;1.48;;;;;;;6.27;60.54;98914.31;686337;28;33294;-58
2021/03/14 00:05:22;;;;;;;3.38;1.63;;;;;;;6.25;60.58;98923.56;686852;28;22190;-61
2021/03/14 00:05:45;;;;;;;2.10;1.63;;;;;;;6.26;60.51;98919.88;685536;28;44262;-58
2021/03/14 00:06:06;;;;;;;2.10;1.42;;;;;;;6.24;60.66;98916.56;686332;28;43473;-65
2021/03/14 00:06:27;;;;;;;1.70;1.60;;;;;;;6.21;60.84;98909.72;686230;28;47703;-56
2021/03/14 00:06:49;;;;;;;3.15;1.60;;;;;;;6.21;60.83;98925.81;687185;28;14288;-60
2021/03/14 00:07:10;;;;;;;1.60;1.50;;;;;;;6.23;60.51;98912.22;688675;28;1378;-61
2021/03/14 00:07:31;;;;;;;1.83;1.53;;;;;;;6.21;60.76;98914.25;687181;28;11468;-60
2021/03/14 00:07:52;;;;;;;2.05;1.50;;;;;;;6.18;60.62;98918.16;686619;28;26344;-62
2021/03/14 00:08:15;;;;;;;2.80;1.70;;;;;;;6.20;60.67;98926.81;686977;28;22425;-62
2021/03/14 00:08:36;;;;;;;3.15;1.73;;;;;;;6.19;60.92;98930.53;686102;28;36507;-62
2021/03/14 00:08:57;;;;;;;2.50;1.70;;;;;;;6.17;60.81;98892.34;685904;28;45340;-62
2021/03/14 00:09:18;;;;;;;1.80;1.70;;;;;;;6.21;60.55;98935.72;687120;28;22283;-62
2021/03/14 00:09:39;;;;;;;2.28;1.52;;;;;;;6.24;60.44;98959.47;687720;28;22287;-62
2021/03/14 00:10:01;;;;;;;2.10;1.67;;;;;;;6.27;60.20;98924.19;686595;28;21518;-62
2021/03/14 00:10:22;;;;;;;2.03;1.55;;;;;;;6.28;59.97;98917.81;686330;28;22366;-62
2021/03/14 00:10:45;;;;;;;1.60;1.50;;;;;;;6.27;59.95;98913.47;686396;28;27738;-63
2021/03/14 00:11:08;;;;;;;1.60;1.50;;;;;;;6.24;59.98;98946.88;685585;28;66647;-63
2021/03/14 00:11:30;;;;;;;1.88;1.70;;;;;;;6.28;59.85;98932.03;685789;28;57750;-62
2021/03/14 00:11:51;;;;;;;1.83;1.73;;;;;;;6.30;60.21;98939.88;687355;28;8038;-62
2021/03/14 00:12:12;;;;;;;2.08;1.80;;;;;;;6.31;60.09;98928.97;688321;28;13446;-63
2021/03/14 00:12:34;;;;;;;1.83;1.60;;;;;;;6.27;60.01;98929.56;685535;28;59471;-63
2021/03/14 00:12:55;;;;;;;3.00;1.50;;;;;;;6.28;60.09;98924.00;686785;28;20372;-63
2021/03/14 00:13:19;;;;;;;3.03;1.50;;;;;;;6.31;60.18;98953.09;686754;28;23672;-63
2021/03/14 00:13:40;;;;;;;1.67;1.40;;;;;;;6.35;59.88;98920.53;684779;28;83947;-63
2021/03/14 00:14:01;;;;;;;1.92;1.65;;;;;;;6.36;59.95;98939.13;687547;28;11204;-63
2021/03/14 00:14:23;;;;;;;1.77;1.58;;;;;;;6.32;59.68;98949.41;687050;28;23506;-63
2021/03/14 00:14:44;;;;;;;2.25;1.50;;;;;;;6.35;60.07;98929.44;687876;28;13663;-58
2021/03/14 00:15:07;;;;;;;2.45;1.58;;;;;;;6.29;59.79;98939.06;686287;28;45369;-61
2021/03/14 00:15:28;;;;;;;1.77;1.63;;;;;;;6.35;59.95;98931.25;685456;28;67322;-62
2021/03/14 00:15:50;;;;;;;1.90;1.80;;;;;;;6.29;59.58;98919.47;686600;28;23421;-62
2021/03/14 00:16:12;;;;;;;3.10;1.70;;;;;;;6.28;60.09;98923.19;686086;28;40110;-59
2021/03/14 00:16:33;;;;;;;2.53;1.63;;;;;;;6.29;60.26;98922.16;686990;28;18790;-65
2021/03/14 00:16:54;;;;;;;2.00;1.63;;;;;;;6.26;60.24;98930.59;686264;28;45329;-60
2021/03/14 00:17:15;;;;;;;1.60;1.50;;;;;;;6.25;60.43;98931.59;687066;28;22410;-60
2021/03/14 00:17:42;;;;;;;1.60;1.50;;;;;;;6.25;60.16;98924.41;686605;28;60713;-62
2021/03/14 00:18:04;;;;;;;1.65;1.55;;;;;;;6.22;60.35;98906.03;686908;28;20742;-63
2021/03/14 00:18:27;;;;;;;1.60;1.50;;;;;;;6.20;60.43;98942.91;686551;28;22392;-63
2021/03/14 00:18:48;;;;;;;1.90;1.60;;;;;;;6.21;60.42;98930.34;683948;28;92553;-62
2021/03/14 00:19:09;;;;;;;1.60;1.50;;;;;;;6.18;60.59;98923.50;686547;28;23588;-62
2021/03/14 00:19:30;;;;;;;1.60;1.50;;;;;;;6.22;60.41;98973.06;686742;28;22241;-61
2021/03/14 00:19:52;;;;;;;1.77;1.67;;;;;;;6.27;60.06;98941.13;687334;28;9254;-62
2021/03/14 00:20:14;;;;;;;1.98;1.70;;;;;;;6.29;59.85;98932.88;687204;28;32358;-62
2021/03/14 00:20:35;;;;;;;1.95;1.50;;;;;;;6.28;60.09;98918.63;686455;28;21659;-61
2021/03/14 00:20:56;;;;;;;1.70;1.60;;;;;;;6.27;59.98;98926.88;686190;28;43304;-61
2021/03/14 00:21:19;;;;;;;1.58;1.45;;;;;;;6.27;59.89;98951.00;686941;28;21536;-61
2021/03/14 00:21:40;;;;;;;1.45;1.33;;;;;;;6.26;60.02;98928.72;685418;28;69606;-59
2021/03/14 00:22:01;;;;;;;1.60;1.50;;;;;;;6.25;60.05;98929.78;687740;28;2914;-61
2021/03/14 00:22:22;;;;;;;2.83;1.70;;;;;;;6.22;60.21;98919.44;687192;28;11100;-62
2021/03/14 00:22:44;;;;;;;2.40;1.60;;;;;;;6.19;60.12;98957.34;687905;28;22397;-63
2021/03/14 00:23:06;;;;;;;1.77;1.67;;;;;;;6.22;60.37;98934.66;686908;28;21556;-62
2021/03/14 00:23:27;;;;;;;1.93;1.73;;;;;;;6.24;60.08;98921.91;687853;28;1111;-62
2021/03/14 00:23:49;;;;;;;1.67;1.42;;;;;;;6.20;60.11;98923.31;686887;28;1159;-61
2021/03/14 00:24:10;;;;;;;2.03;1.52;;;;;;;6.16;60.15;98930.06;686783;28;18375;-63
2021/03/14 00:24:32;;;;;;;1.48;1.38;;;;;;;6.16;60.46;98930.06;686260;28;22494;-62
2021/03/14 00:24:53;;;;;;;1.60;1.50;;;;;;;6.15;60.97;98937.31;686481;28;9870;-61
2021/03/14 00:25:15;;;;;;;1.70;1.60;;;;;;;6.19;60.57;98927.00;687582;28;23463;-60
2021/03/14 00:25:37;;;;;;;2.17;1.73;;;;;;;6.19;60.49;98932.38;685818;28;70515;-60
2021/03/14 00:25:59;;;;;;;1.70;1.60;;;;;;;6.21;60.60;98938.41;689041;28;25850;-65
2021/03/14 00:26:20;;;;;;;2.25;1.98;;;;;;;6.22;60.19;98932.84;688895;28;30557;-58
2021/03/14 00:26:42;;;;;;;2.22;1.80;;;;;;;6.26;60.04;98970.81;689449;28;16902;-60
2021/03/14 00:27:04;;;;;;;1.70;1.60;;;;;;;6.30;59.78;98959.50;687569;28;45502;-63
2021/03/14 00:27:26;;;;;;;1.70;1.60;;;;;;;6.30;59.42;98930.00;685808;28;46435;-62
2021/03/14 00:27:47;;;;;;;1.70;1.60;;;;;;;6.29;59.46;98930.22;688168;28;22482;-61
2021/03/14 00:28:08;;;;;;;2.53;1.80;;;;;;;6.28;59.77;98949.97;686074;28;46343;-62
2021/03/14 00:28:30;;;;;;;3.88;2.10;;;;;;;6.31;59.71;98947.75;687129;28;24466;-62
2021/03/14 00:28:51;;;;;;;2.42;1.92;;;;;;;6.30;59.38;98940.75;686164;28;46442;-62
2021/03/14 00:29:13;;;;;;;1.77;1.67;;;;;;;6.30;59.80;98938.06;687483;28;10589;-62
2021/03/14 00:29:34;;;;;;;1.60;1.50;;;;;;;6.28;59.72;98955.34;686099;28;35514;-62
2021/03/14 00:29:55;;;;;;;2.40;1.60;;;;;;;6.27;59.65;98935.75;686982;28;22198;-62
2021/03/14 00:30:18;;;;;;;2.45;1.60;;;;;;;6.27;59.86;98978.66;687806;28;22026;-62
2021/03/14 00:30:39;;;;;;;1.80;1.60;;;;;;;6.28;59.79;98945.44;686008;28;47462;-62
2021/03/14 00:31:00;;;;;;;2.10;1.70;;;;;;;6.28;59.62;98934.72;686855;28;21337;-62
2021/03/14 00:31:21;;;;;;;2.05;1.52;;;;;;;6.29;59.67;98943.59;685871;28;46156;-62
2021/03/14 00:31:42;;;;;;;2.00;1.60;;;;;;;6.30;59.55;98943.41;686878;28;21553;-62
2021/03/14 00:32:05;;;;;;;1.60;1.50;;;;;;;6.33;59.62;98947.53;687055;28;22398;-61
2021/03/14 00:32:26;;;;;;;1.77;1.50;;;;;;;6.35;59.45;98945.53;685199;28;69239;-61
2021/03/14 00:32:47;;;;;;;2.00;1.45;;;;;;;6.29;59.75;98936.38;688396;28;12442;-61
2021/03/14 00:33:08;;;;;;;1.77;1.60;;;;;;;6.34;59.77;98935.00;686914;28;22417;-61
2021/03/14 00:33:30;;;;;;;1.95;1.60;;;;;;;6.35;59.57;98945.53;687858;28;910;-61
2021/03/14 00:33:52;;;;;;;2.25;1.60;;;;;;;6.36;59.48;98949.03;687130;28;21186;-60
2021/03/14 00:34:13;;;;;;;1.80;1.70;;;;;;;6.37;59.38;98940.78;686072;28;46373;-62
2021/03/14 00:34:35;;;;;;;2.22;1.63;;;;;;;6.37;59.17;98932.75;686585;28;22508;-60
2021/03/14 00:34:56;;;;;;;2.20;1.50;;;;;;;6.32;59.37;98941.38;685523;28;46181;-61
2021/03/14 00:35:19;;;;;;;1.70;1.60;;;;;;;6.32;59.45;98938.69;687252;28;44126;-63
2021/03/14 00:35:40;;;;;;;1.42;1.40;;;;;;;6.32;59.53;98944.03;686624;28;21471;-62
2021/03/14 00:36:01;;;;;;;1.50;1.40;;;;;;;6.32;59.55;98940.53;687121;28;11199;-61
2021/03/14 00:36:23;;;;;;;1.67;1.42;;;;;;;6.31;59.59;98947.75;686673;28;9168;-62
2021/03/14 00:36:44;;;;;;;1.77;1.60;;;;;;;6.31;59.57;98947.75;686666;28;22491;-61
2021/03/14 00:37:06;;;;;;;1.95;1.50;;;;;;;6.32;59.67;98957.44;686552;28;21525;-62
2021/03/14 00:37:27;;;;;;;3.28;1.60;;;;;;;6.31;59.53;98945.06;685760;28;62197;-62
2021/03/14 00:37:49;;;;;;;1.50;1.40;;;;;;;6.34;59.44;98945.72;688165;28;22193;-59
2021/03/14 00:38:10;;;;;;;1.50;1.40;;;;;;;6.34;59.28;98951.06;685941;28;45271;-62
2021/03/14 00:38:31;;;;;;;2.53;1.67;;;;;;;6.34;59.36;98973.34;686837;28;21570;-60
2021/03/14 00:38:52;;;;;;;3.10;1.80;;;;;;;6.36;59.08;98955.19;686745;28;22234;-59
2021/03/14 00:39:14;;;;;;;1.63;1.52;;;;;;;6.35;59.58;98987.56;686288;28;21527;-60
2021/03/14 00:39:35;;;;;;;1.60;1.50;;;;;;;6.37;59.18;98964.09;686915;28;22394;-58
2021/03/14 00:39:56;;;;;;;1.93;1.40;;;;;;;6.38;59.13;98955.84;686886;28;23603;-60
2021/03/14 00:40:19;;;;;;;2.20;1.58;;;;;;;6.41;58.83;98946.56;687226;28;46322;-62
2021/03/14 00:40:41;;;;;;;2.00;1.80;;;;;;;6.41;58.91;98962.66;685221;28;69326;-60
2021/03/14 00:41:02;;;;;;;1.77;1.67;;;;;;;6.43;58.79;98956.09;686740;28;22486;-61
2021/03/14 00:41:23;;;;;;;2.47;1.42;;;;;;;6.39;58.68;98937.91;685617;28;46317;-60
2021/03/14 00:41:44;;;;;;;2.20;1.50;;;;;;;6.36;59.03;98952.53;687152;28;21533;-59
2021/03/14 00:42:06;;;;;;;1.83;1.60;;;;;;;6.33;59.01;98952.91;687010;28;22416;-61
2021/03/14 00:42:27;;;;;;;1.75;1.50;;;;;;;6.32;59.16;98962.81;685974;28;46623;-60
2021/03/14 00:42:49;;;;;;;1.60;1.50;;;;;;;6.34;59.46;98945.72;687955;28;22398;-62
2021/03/14 00:43:10;;;;;;;1.70;1.50;;;;;;;6.36;59.26;98973.97;685630;28;46359;-61
2021/03/14 00:43:32;;;;;;;1.67;1.25;;;;;;;6.37;59.04;98940.78;686512;28;22428;-61
2021/03/14 00:43:53;;;;;;;1.83;1.50;;;;;;;6.36;59.00;98935.63;683729;28;36776;-60
2021/03/14 00:44:14;;;;;;;2.28;1.60;;;;;;;6.40;58.84;98947.63;684318;28;10034;-60
2021/03/14 00:44:36;;;;;;;2.65;1.50;;;;;;;6.39;58.84;98954.00;683752;28;22391;-61
2021/03/14 00:44:57;;;;;;;1.70;1.60;;;;;;;6.39;58.54;98944.09;683003;28;45230;-61
2021/03/14 00:45:18;;;;;;;1.80;1.58;;;;;;;6.38;58.92;98952.31;682167;29;21426;-62
2021/03/14 00:45:40;;;;;;;2.10;1.60;;;;;;;6.36;58.93;98951.69;681592;28;1239;-61
2021/03/14 00:46:01;;;;;;;2.25;1.42;;;;;;;6.32;59.20;98941.38;684291;28;1107;-62
2021/03/14 00:46:23;;;;;;;1.60;1.50;;;;;;;6.31;59.14;98963.81;685788;28;44411;-62
2021/03/14 00:46:44;;;;;;;2.47;1.40;;;;;;;6.34;59.18;98948.41;686598;28;22183;-61
2021/03/14 00:47:05;;;;;;;1.48;1.42;;;;;;;6.32;59.19;98957.44;684089;28;23459;-62
2021/03/14 00:47:27;;;;;;;1.60;1.50;;;;;;;6.33;59.31;98936.81;685721;28;23650;-61
2021/03/14 00:47:48;;;;;;;1.73;1.63;;;;;;;6.30;59.19;98945.25;688046;28;46434;-61
2021/03/14 00:48:09;;;;;;;1.95;1.55;;;;;;;6.32;59.27;98937.88;690537;28;22388;-59
2021/03/14 00:48:32;;;;;;;1.60;1.50;;;;;;;6.32;59.35;98953.94;685162;28;69343;-62
2021/03/14 00:48:53;;;;;;;1.75;1.60;;;;;;;6.33;59.15;98963.63;687723;28;23448;-59
2021/03/14 00:49:16;;;;;;;1.55;1.45;;;;;;;6.31;58.93;98963.81;686272;28;22418;-59
2021/03/14 00:49:37;;;;;;;1.33;1.23;;;;;;;6.30;59.11;98942.56;680948;28;69477;-59
2021/03/14 00:49:58;;;;;;;1.50;1.40;;;;;;;6.33;59.00;98958.28;681465;29;21363;-60
2021/03/14 00:50:20;;;;;;;2.05;1.40;;;;;;;6.32;59.07;98967.34;679480;29;23179;-59
2021/03/14 00:50:42;;;;;;;1.77;1.67;;;;;;;6.31;59.29;98954.97;681680;28;46315;-63
2021/03/14 00:51:08;;;;;;;1.42;1.30;;;;;;;6.30;59.20;98951.47;677764;28;147529;-62
2021/03/14 00:51:35;;;;;;;1.67;1.58;;;;;;;6.33;59.01;98977.03;677371;29;138025;-62
2021/03/14 00:51:57;;;;;;;1.63;1.52;;;;;;;6.35;58.99;98968.81;680681;28;46431;-62
2021/03/14 00:52:18;;;;;;;1.50;1.40;;;;;;;6.36;58.87;98946.34;681708;28;23719;-61
2021/03/14 00:52:39;;;;;;;2.13;1.52;;;;;;;6.34;59.28;98951.06;681010;28;21552;-62
2021/03/14 00:53:00;;;;;;;2.35;1.52;;;;;;;6.36;58.74;98946.34;679655;29;22430;-62
2021/03/14 00:53:27;;;;;;;1.60;1.50;;;;;;;6.37;58.95;98948.81;678049;28;136353;-61
2021/03/14 00:53:50;;;;;;;1.60;1.50;;;;;;;6.37;59.00;98938.09;681837;28;45321;-59
2021/03/14 00:54:17;;;;;;;1.42;1.33;;;;;;;6.35;58.75;98955.41;677204;29;138163;-59
2021/03/14 00:54:39;;;;;;;1.45;1.35;;;;;;;6.33;58.77;98942.19;678395;29;23474;-63
2021/03/14 00:55:01;;;;;;;1.50;1.40;;;;;;;6.34;59.06;98943.84;679861;28;46237;-62
2021/03/14 00:55:22;;;;;;;1.60;1.50;;;;;;;6.30;59.07;98943.41;677640;29;45370;-59
2021/03/14 00:55:43;;;;;;;1.77;1.67;;;;;;;6.30;59.31;98953.28;679905;29;22433;-62
2021/03/14 00:56:05;;;;;;;1.70;1.60;;;;;;;6.28;58.97;98942.75;680091;29;46294;-62
2021/03/14 00:56:27;;;;;;;1.45;1.45;;;;;;;6.31;59.14;98958.47;681592;28;22383;-61
2021/03/14 00:56:48;;;;;;;2.55;1.50;;;;;;;6.34;59.05;98959.13;680833;28;46521;-62
2021/03/14 00:57:09;;;;;;;3.60;1.80;;;;;;;6.34;58.80;98965.31;681074;28;23484;-62
2021/03/14 00:57:30;;;;;;;1.92;1.48;;;;;;;6.36;58.66;98963.25;684824;28;963;-62
2021/03/14 00:57:52;;;;;;;1.20;1.20;;;;;;;6.38;58.56;98926.38;681360;28;1412;-61
2021/03/14 00:58:13;;;;;;;1.48;1.38;;;;;;;6.37;58.48;98953.38;680728;29;46147;-61
2021/03/14 00:58:35;;;;;;;1.48;1.38;;;;;;;6.34;58.82;98954.56;682371;28;1128;-62
2021/03/14 00:58:56;;;;;;;1.42;1.33;;;;;;;6.34;59.00;98951.06;683384;28;1038;-62
2021/03/14 00:59:19;;;;;;;2.17;1.40;;;;;;;6.36;59.11;98967.78;685916;28;22393;-62
2021/03/14 00:59:40;;;;;;;1.88;1.17;;;;;;;6.35;58.77;98950.88;685478;28;30493;-62
2021/03/14 01:00:01;;;;;;;1.38;1.23;;;;;;;6.36;58.83;98946.34;689025;28;15290;-59
2021/03/14 01:00:23;;;;;;;1.50;1.40;;;;;;;6.36;58.70;98947.16;686823;28;17028;-61
2021/03/14 01:00:45;;;;;;;1.92;1.30;;;;;;;6.36;58.78;98951.69;686720;28;1324;-61
2021/03/14 01:01:06;;;;;;;1.65;1.40;;;;;;;6.35;58.96;98937.47;683415;28;44393;-61
2021/03/14 01:01:37;;;;;;;2.05;1.50;;;;;;;6.40;58.45;98979.81;679868;28;115160;-61
2021/03/14 01:01:58;;;;;;;1.63;1.52;;;;;;;6.36;58.43;98960.56;679885;28;139027;-62
2021/03/14 01:02:20;;;;;;;1.70;1.60;;;;;;;6.41;58.45;98949.25;684333;28;46315;-60
2021/03/14 01:02:41;;;;;;;1.40;1.40;;;;;;;6.39;58.51;98959.34;686420;28;21353;-59
2021/03/14 01:03:03;;;;;;;1.40;1.30;;;;;;;6.39;58.72;98954.81;683576;28;23440;-62
2021/03/14 01:03:30;;;;;;;1.60;1.50;;;;;;;6.36;58.63;98957.06;683963;28;148838;-61
2021/03/14 01:03:52;;;;;;;2.10;1.52;;;;;;;6.34;58.93;98965.31;689172;28;37568;-61
2021/03/14 01:04:13;;;;;;;2.03;1.60;;;;;;;6.37;58.48;98946.16;690582;28;13964;-59
2021/03/14 01:04:34;;;;;;;1.50;1.42;;;;;;;6.36;58.51;98965.09;688416;28;44172;-59
2021/03/14 01:04:56;;;;;;;1.50;1.40;;;;;;;6.35;58.57;98948.19;690985;28;20674;-56
2021/03/14 01:05:17;;;;;;;2.60;1.60;;;;;;;6.36;58.48;98954.38;688922;28;22396;-57
2021/03/14 01:05:39;;;;;;;1.67;1.52;;;;;;;6.33;58.68;98950.22;686719;28;21434;-61
2021/03/14 01:06:00;;;;;;;2.60;1.50;;;;;;;6.29;58.70;98946.28;682776;28;44381;-58
2021/03/14 01:06:22;;;;;;;2.10;1.40;;;;;;;6.25;58.60;98956.59;683549;28;23527;-61
2021/03/14 01:06:43;;;;;;;1.50;1.40;;;;;;;6.25;58.93;98956.59;684427;28;44371;-61
2021/03/14 01:07:04;;;;;;;1.60;1.50;;;;;;;6.27;59.00;98949.16;683839;28;22377;-62
2021/03/14 01:07:25;;;;;;;1.80;1.42;;;;;;;6.26;59.12;98957.41;683315;28;22426;-62
2021/03/14 01:07:47;;;;;;;2.45;1.40;;;;;;;6.26;59.26;98965.44;680676;28;46299;-61
2021/03/14 01:08:08;;;;;;;1.70;1.50;;;;;;;6.29;59.15;98963.19;680594;29;46315;-62
2021/03/14 01:08:31;;;;;;;2.92;1.48;;;;;;;6.30;59.04;98959.50;677528;29;44351;-62
2021/03/14 01:08:52;;;;;;;3.05;1.42;;;;;;;6.30;58.67;98958.66;678100;29;46713;-60
2021/03/14 01:09:15;;;;;;;1.80;1.50;;;;;;;6.33;58.61;98963.63;679827;29;45263;-62
2021/03/14 01:09:36;;;;;;;1.65;1.55;;;;;;;6.30;58.75;98955.97;678558;29;46419;-61
2021/03/14 01:09:58;;;;;;;1.35;1.23;;;;;;;6.29;59.10;98957.00;679586;29;23472;-60
2021/03/14 01:10:19;;;;;;;1.63;1.38;;;;;;;6.27;58.86;98954.53;680858;29;23391;-62
2021/03/14 01:10:42;;;;;;;1.85;1.50;;;;;;;6.27;58.93;98957.22;679932;29;46349;-61
2021/03/14 01:11:08;;;;;;;1.50;1.40;;;;;;;6.29;58.80;98952.47;678056;28;136381;-60
2021/03/14 01:11:56;;;;;;;1.30;1.20;;;;;;;6.25;58.90;98945.00;673656;28;59083;-59
2021/03/14 01:12:29;;;;;;;1.95;1.50;;;;;;;6.24;58.95;98964.81;682695;28;135699;-64
2021/03/14 01:13:00;;;;;;;2.00;1.52;;;;;;;6.27;58.89;98983.16;682411;28;123210;-61
2021/03/14 01:13:22;;;;;;;1.88;1.50;;;;;;;6.30;58.65;98947.94;684366;28;46329;-59
2021/03/14 01:13:44;;;;;;;1.40;1.40;;;;;;;6.26;58.54;98952.03;687943;28;980;-60
2021/03/14 01:14:06;;;;;;;1.30;1.20;;;;;;;6.25;58.77;98961.94;684372;28;69664;-60
2021/03/14 01:14:37;;;;;;;1.70;1.60;;;;;;;6.21;58.69;98949.94;676870;28;137363;-60
2021/03/14 01:15:11;;;;;;;1.85;1.55;;;;;;;6.20;59.28;98952.81;677488;28;137827;-62
2021/03/14 01:15:39;;;;;;;2.47;1.50;;;;;;;6.20;59.30;98961.66;674544;29;138605;-61
2021/03/14 01:16:00;;;;;;;3.20;1.52;;;;;;;6.21;59.23;98974.06;678879;28;45126;-62
2021/03/14 01:16:22;;;;;;;1.85;1.42;;;;;;;6.21;59.17;98963.34;680925;28;22204;-62
2021/03/14 01:16:43;;;;;;;1.35;1.25;;;;;;;6.24;59.13;98949.56;682498;28;21517;-62
2021/03/14 01:17:05;;;;;;;3.13;1.20;;;;;;;6.24;59.14;98967.50;680969;28;22410;-61
2021/03/14 01:17:27;;;;;;;2.30;1.40;;;;;;;6.24;59.04;98970.19;682699;28;70243;-62
2021/03/14 01:17:48;;;;;;;2.83;1.73;;;;;;;6.22;59.06;98961.47;686296;28;24029;-61
2021/03/14 01:18:10;;;;;;;1.55;1.45;;;;;;;6.27;58.80;98978.66;686797;28;22207;-62
2021/03/14 01:18:32;;;;;;;1.50;1.40;;;;;;;6.30;58.91;98958.66;685011;28;67638;-61
2021/03/14 01:18:53;;;;;;;1.60;1.40;;;;;;;6.28;58.98;98988.34;690178;28;22428;-62
2021/03/14 01:19:14;;;;;;;2.00;1.30;;;;;;;6.31;58.79;98981.78;691673;28;23498;-62
2021/03/14 01:19:35;;;;;;;1.33;1.20;;;;;;;6.31;58.56;98960.31;686347;28;22404;-62
2021/03/14 01:19:56;;;;;;;2.15;1.45;;;;;;;6.29;58.51;98963.19;685900;28;46302;-62
2021/03/14 01:20:20;;;;;;;2.58;1.55;;;;;;;6.32;58.65;98984.25;686554;28;21534;-62
2021/03/14 01:20:41;;;;;;;2.83;1.60;;;;;;;6.32;58.53;98962.81;684797;28;69470;-62
2021/03/14 01:21:02;;;;;;;2.55;1.58;;;;;;;6.30;58.58;98970.22;686337;28;21539;-62
2021/03/14 01:21:23;;;;;;;1.58;1.40;;;;;;;6.30;58.63;98983.63;685766;28;46456;-62
2021/03/14 01:21:45;;;;;;;2.58;1.50;;;;;;;6.30;58.44;98972.91;687596;28;22908;-60
2021/03/14 01:22:06;;;;;;;1.90;1.45;;;;;;;6.31;58.60;98984.47;686788;28;23447;-59
2021/03/14 01:22:27;;;;;;;1.42;1.30;;;;;;;6.33;58.55;98963.63;686745;28;23468;-60
2021/03/14 01:22:49;;;;;;;1.90;1.52;;;;;;;6.35;58.39;98958.94;686067;28;21578;-61
2021/03/14 01:23:10;;;;;;;2.20;1.50;;;;;;;6.30;58.26;98980.97;685987;28;45284;-61
2021/03/14 01:23:31;;;;;;;1.38;1.38;;;;;;;6.32;58.43;98978.09;686412;28;32076;-61
2021/03/14 01:23:52;;;;;;;2.13;1.60;;;;;;;6.31;58.39;99008.59;687480;28;7763;-59
2021/03/14 01:24:13;;;;;;;1.48;1.30;;;;;;;6.28;58.58;98999.06;688395;28;14099;-60
2021/03/14 01:24:34;;;;;;;1.67;1.48;;;;;;;6.34;58.42;98969.84;686741;28;23510;-61
2021/03/14 01:24:56;;;;;;;1.67;1.58;;;;;;;6.33;58.12;98977.03;686531;28;23427;-62
2021/03/14 01:25:17;;;;;;;1.45;1.35;;;;;;;6.34;58.45;98976.03;686932;28;21746;-63
2021/03/14 01:25:38;;;;;;;3.33;1.40;;;;;;;6.31;58.08;98963.00;685344;28;47244;-61
2021/03/14 01:25:59;;;;;;;3.80;1.48;;;;;;;6.28;58.41;98971.44;686838;28;21343;-63
2021/03/14 01:26:21;;;;;;;1.60;1.42;;;;;;;6.30;58.20;98958.66;686623;28;22490;-59
2021/03/14 01:26:42;;;;;;;1.65;1.55;;;;;;;6.28;58.43;98972.25;687757;28;22413;-63
2021/03/14 01:27:03;;;;;;;2.15;1.92;;;;;;;6.28;58.40;98955.34;686591;28;22399;-63
2021/03/14 01:27:24;;;;;;;1.50;1.40;;;;;;;6.22;58.48;98975.72;685804;28;46322;-62
2021/03/14 01:27:46;;;;;;;1.50;1.40;;;;;;;6.22;58.64;98962.31;686744;28;22446;-62
2021/03/14 01:28:07;;;;;;;1.42;1.33;;;;;;;6.26;58.50;98962.75;687032;28;21505;-63
2021/03/14 01:28:28;;;;;;;1.80;1.40;;;;;;;6.25;58.55;98974.50;686891;28;22409;-63
2021/03/14 01:28:50;;;;;;;1.98;1.50;;;;;;;6.27;58.50;98959.03;686929;28;23482;-62
2021/03/14 01:29:11;;;;;;;1.60;1.50;;;;;;;6.25;58.74;98972.66;686286;28;70199;-62
2021/03/14 01:29:32;;;;;;;2.20;1.40;;;;;;;6.23;58.75;98968.50;687214;28;5645;-63
2021/03/14 01:29:54;;;;;;;1.60;1.30;;;;;;;6.25;58.74;98967.31;687354;28;981;-63
2021/03/14 01:30:16;;;;;;;2.00;1.30;;;;;;;6.27;58.55;98973.28;687308;28;3811;-63
2021/03/14 01:30:37;;;;;;;3.63;1.30;;;;;;;6.27;58.63;98975.13;685363;28;62768;-63
2021/03/14 01:30:59;;;;;;;1.55;1.20;;;;;;;6.26;58.54;98965.44;686939;28;23479;-62
2021/03/14 01:31:20;;;;;;;2.25;1.30;;;;;;;6.24;58.47;98962.94;686711;28;22562;-63
2021/03/14 01:31:41;;;;;;;1.50;1.40;;;;;;;6.23;58.67;98968.50;688301;28;16867;-62
2021/03/14 01:32:02;;;;;;;1.40;1.30;;;;;;;6.26;58.63;98970.81;686366;28;41865;-57
2021/03/14 01:32:24;;;;;;;1.52;1.42;;;;;;;6.25;58.55;98978.03;687038;28;23567;-60
2021/03/14 01:32:46;;;;;;;1.77;1.40;;;;;;;6.25;58.92;98971.81;686778;28;12412;-56
2021/03/14 01:33:07;;;;;;;1.40;1.30;;;;;;;6.28;58.52;98968.75;686003;28;46350;-60
2021/03/14 01:33:28;;;;;;;1.20;1.20;;;;;;;6.22;58.57;98990.97;685261;28;46319;-61
2021/03/14 01:33:49;;;;;;;1.23;1.13;;;;;;;6.24;58.75;98978.22;687399;28;8780;-63
2021/03/14 01:34:11;;;;;;;1.38;1.27;;;;;;;6.27;58.44;98975.13;686604;28;22499;-60
2021/03/14 01:34:35;;;;;;;2.20;1.50;;;;;;;6.28;58.44;98974.94;687436;28;16961;-61
2021/03/14 01:34:56;;;;;;;2.60;1.40;;;;;;;6.26;58.63;98979.66;683935;28;107927;-60
2021/03/14 01:35:18;;;;;;;1.45;1.20;;;;;;;6.26;58.62;98989.56;686290;28;44601;-59
2021/03/14 01:35:39;;;;;;;1.95;1.15;;;;;;;6.26;58.78;98973.50;686444;28;23983;-64
2021/03/14 01:36:00;;;;;;;2.03;1.48;;;;;;;6.22;58.67;98982.91;686094;28;46413;-59
2021/03/14 01:36:21;;;;;;;1.40;1.30;;;;;;;6.20;59.05;98979.63;687635;28;19776;-60
2021/03/14 01:36:42;;;;;;;2.55;1.30;;;;;;;6.21;59.02;98971.38;687310;28;22408;-60
2021/03/14 01:37:07;;;;;;;3.13;1.30;;;;;;;6.21;59.12;98970.56;687842;28;23403;-58
2021/03/14 01:37:28;;;;;;;1.23;1.23;;;;;;;6.18;59.05;98974.44;683863;28;115999;-62
2021/03/14 01:37:49;;;;;;;1.50;1.40;;;;;;;6.22;59.19;98985.59;687330;28;23651;-63
2021/03/14 01:38:11;;;;;;;1.48;1.30;;;;;;;6.25;59.03;99004.00;687549;28;20112;-63
2021/03/14 01:38:32;;;;;;;1.88;1.40;;;;;;;6.27;58.78;99001.94;688192;28;854;-63
2021/03/14 01:38:54;;;;;;;2.53;1.40;;;;;;;6.29;58.71;99003.41;687889;28;1868;-63
2021/03/14 01:39:20;;;;;;;2.22;1.48;;;;;;;6.34;58.65;98976.03;685511;28;61595;-63
2021/03/14 01:39:46;;;;;;;1.40;1.30;;;;;;;6.32;58.61;98970.84;686964;28;61302;-63
2021/03/14 01:40:09;;;;;;;1.65;1.55;;;;;;;6.32;58.66;98967.34;687473;28;23537;-60
2021/03/14 01:40:30;;;;;;;1.70;1.60;;;;;;;6.34;58.65;98972.53;686427;28;47279;-61
2021/03/14 01:40:51;;;;;;;1.70;1.40;;;;;;;6.29;58.65;98979.28;686384;28;47007;-60
2021/03/14 01:41:12;;;;;;;1.73;1.48;;;;;;;6.30;58.98;98982.78;689045;28;23406;-58
2021/03/14 01:41:33;;;;;;;1.50;1.40;;;;;;;6.29;59.11;98981.16;689781;28;18585;-63
2021/03/14 01:41:54;;;;;;;1.63;1.27;;;;;;;6.31;59.02;98987.13;689615;28;24639;-60
2021/03/14 01:42:24;;;;;;;1.40;1.30;;;;;;;6.32;58.82;98978.09;691160;28;21474;-61
2021/03/14 01:42:46;;;;;;;1.48;1.38;;;;;;;6.35;58.89;98979.53;685385;28;138388;-61
2021/03/14 01:43:07;;;;;;;2.80;1.77;;;;;;;6.34;58.84;98969.84;687838;28;40963;-61
2021/03/14 01:43:34;;;;;;;2.25;1.67;;;;;;;6.33;58.75;98979.72;687344;28;22399;-61
2021/03/14 01:43:57;;;;;;;1.30;1.30;;;;;;;6.30;58.73;98988.16;683288;28;138805;-62
2021/03/14 01:44:19;;;;;;;1.42;1.30;;;;;;;6.27;58.79;98965.25;685126;28;69501;-62
2021/03/14 01:44:41;;;;;;;1.50;1.30;;;;;;;6.24;58.91;98964.81;688330;28;20861;-60
2021/03/14 01:45:04;;;;;;;1.40;1.30;;;;;;;6.22;59.20;98964.16;685237;28;67478;-62
2021/03/14 01:45:25;;;;;;;1.50;1.40;;;;;;;6.19;59.32;98976.13;685615;28;68366;-62
2021/03/14 01:45:47;;;;;;;1.67;1.55;;;;;;;6.21;59.60;98978.59;686708;28;23414;-61
2021/03/14 01:46:09;;;;;;;1.70;1.60;;;;;;;6.26;59.15;98970.81;686886;28;22452;-61
2021/03/14 01:46:32;;;;;;;1.60;1.40;;;;;;;6.27;59.05;98970.63;685924;28;59081;-60